Terminal Aerodrome Forecast
Issued by NWS

Home | Current Version | Previous Version | Text Only | Print | Product List | Glossary On
Versions: 1 2 3 4 5 6 7 8 9 10 11 12 13 14 15 16 17 18 19 20 21 22 23
000
FTUS43 KFGF 042324
TAFBJI
TAF
KBJI 042324Z 0500/0524 15008KT P6SM BKN040
      TEMPO 0500/0502 3SM -TSRA BKN040CB
     FM050600 12005KT P6SM BKN080
      TEMPO 0509/0512 OVC006
     FM051500 13006KT P6SM SCT250=

USA.gov is the U.S. government's official web portal to all federal, state and local government web resources and services.